Bryan's Hourly Summary for Sunday, March 19, 2017
Hour Temp
(f)
RH
(%)
Solar Rad.
(MJ/m2)
Rainfall
(in)
Wind
(mph)
3/19/2017 12:00 AM 70 76 0 0 5.07
3/19/2017 1:00 AM 69 83 0 0 5.55
3/19/2017 2:00 AM 68 87 0 0 4.26
3/19/2017 3:00 AM 66 91 0 0 3.28
3/19/2017 4:00 AM 65 94 0 0 1.72
3/19/2017 5:00 AM 64 95 0 0 1.22
3/19/2017 6:00 AM 64 96 0 0 2.76
3/19/2017 7:00 AM 65 93 0.01 0 4.44
3/19/2017 8:00 AM 66 92 0.02 0 2.89
3/19/2017 9:00 AM 67 89 0.21 0 2.02
3/19/2017 10:00 AM 68 80 0.51 0 4.37
3/19/2017 11:00 AM 69 79 0.57 0 4.22
3/19/2017 12:00 PM 71 69 1.71 0 5.36
3/19/2017 1:00 PM 74 60 2.66 0 6.25
3/19/2017 2:00 PM 76 53 2.79 0 6.98
3/19/2017 3:00 PM 78 50 2.5 0 7.53
3/19/2017 4:00 PM 79 47 2.24 0 8.3
3/19/2017 5:00 PM 80 44 1.95 0 8.36
3/19/2017 6:00 PM 80 44 1.35 0 8.1
3/19/2017 7:00 PM 80 44 0.6 0 7.28
3/19/2017 8:00 PM 77 48 0.06 0 3.47
3/19/2017 9:00 PM 74 58 0 0 3.21
3/19/2017 10:00 PM 73 63 0 0 4.59
3/19/2017 11:00 PM 71 70 0 0 6.28
Data Summary 71 71 17.18 0.00 4.90